createdAt,value
2019-03-27T00:00:26.245Z,5.53
2019-03-27T00:01:03.260Z,7.05
2019-03-27T00:01:36.976Z,8.78
2019-03-27T00:02:11.712Z,9.00
2019-03-27T00:02:45.370Z,8.18
2019-03-27T00:03:19.017Z,7.58
2019-03-27T00:03:52.664Z,12.65
2019-03-27T00:04:26.323Z,8.35
2019-03-27T00:05:00.100Z,5.03
2019-03-27T00:05:33.999Z,7.70
2019-03-27T00:06:07.731Z,8.63
2019-03-27T00:06:41.485Z,6.25
2019-03-27T00:07:15.308Z,4.58
2019-03-27T00:07:49.046Z,7.30
2019-03-27T00:08:24.022Z,7.72
2019-03-27T00:08:59.073Z,6.85
2019-03-27T00:09:32.740Z,9.03
2019-03-27T00:10:07.525Z,7.33
2019-03-27T00:10:41.280Z,7.95
2019-03-27T00:11:16.390Z,6.35
2019-03-27T00:11:50.260Z,7.47
2019-03-27T00:12:23.932Z,5.78
2019-03-27T00:12:57.660Z,8.93
2019-03-27T00:13:31.305Z,12.82
2019-03-27T00:14:05.140Z,10.40
2019-03-27T00:14:38.869Z,6.97
2019-03-27T00:15:13.876Z,6.25
2019-03-27T00:15:47.866Z,7.15
2019-03-27T00:16:21.589Z,7.62
2019-03-27T00:16:55.537Z,5.17
2019-03-27T00:17:29.187Z,5.45
2019-03-27T00:18:02.868Z,7.80
2019-03-27T00:18:36.500Z,6.60
2019-03-27T00:19:10.148Z,10.93
2019-03-27T00:19:43.802Z,6.97
2019-03-27T00:20:17.672Z,8.38
2019-03-27T00:20:51.471Z,8.70
2019-03-27T00:21:25.196Z,9.20
2019-03-27T00:21:59.007Z,8.10
2019-03-27T00:22:32.786Z,7.25
2019-03-27T00:23:06.435Z,12.43
2019-03-27T00:23:40.210Z,5.55
2019-03-27T00:24:13.945Z,7.22
2019-03-27T00:24:47.614Z,4.80
2019-03-27T00:25:21.389Z,10.15
2019-03-27T00:25:55.046Z,9.73
2019-03-27T00:26:28.765Z,15.48
2019-03-27T00:27:02.412Z,9.25
2019-03-27T00:27:36.081Z,8.80
2019-03-27T00:28:09.925Z,11.22
2019-03-27T00:28:43.849Z,8.78
2019-03-27T00:29:17.512Z,7.03
2019-03-27T00:29:51.164Z,6.87
2019-03-27T00:30:25.117Z,4.80
2019-03-27T00:30:59.118Z,12.18
2019-03-27T00:31:32.871Z,12.13
2019-03-27T00:32:06.516Z,8.03
2019-03-27T00:32:40.269Z,10.18
2019-03-27T00:33:14.009Z,6.45
2019-03-27T00:33:47.669Z,9.03
2019-03-27T00:34:21.401Z,7.67
2019-03-27T00:34:55.067Z,7.20
2019-03-27T00:35:28.718Z,7.37
2019-03-27T00:36:02.478Z,6.90
2019-03-27T00:36:36.228Z,8.15
2019-03-27T00:37:09.958Z,10.28
2019-03-27T00:37:43.602Z,6.17
2019-03-27T00:38:17.274Z,6.70
2019-03-27T00:38:50.925Z,6.90
2019-03-27T00:39:24.604Z,7.22
2019-03-27T00:39:58.310Z,8.48
2019-03-27T00:40:32.053Z,5.08
2019-03-27T00:41:05.810Z,6.30
2019-03-27T00:41:39.557Z,5.15
2019-03-27T00:42:13.217Z,6.15
2019-03-27T00:42:46.950Z,7.70
2019-03-27T00:43:20.601Z,8.48
2019-03-27T00:43:54.334Z,5.15
2019-03-27T00:44:27.981Z,6.50
2019-03-27T00:45:01.700Z,9.95
2019-03-27T00:45:35.360Z,9.65
2019-03-27T00:46:09.100Z,6.75
2019-03-27T00:46:42.845Z,8.68
2019-03-27T00:47:16.510Z,7.12
2019-03-27T00:47:50.166Z,7.95
2019-03-27T00:48:23.888Z,6.65
2019-03-27T00:48:57.632Z,6.42
2019-03-27T00:49:31.361Z,7.08
2019-03-27T00:50:05.188Z,8.40
2019-03-27T00:50:38.922Z,5.25
2019-03-27T00:51:12.611Z,6.83
2019-03-27T00:51:46.263Z,5.58
2019-03-27T00:52:20.004Z,8.75
2019-03-27T00:52:53.686Z,5.80
2019-03-27T00:53:27.433Z,8.55
2019-03-27T00:54:01.266Z,9.08
2019-03-27T00:54:34.936Z,8.25
2019-03-27T00:55:09.031Z,10.30
2019-03-27T00:55:42.718Z,7.87
2019-03-27T00:56:16.575Z,8.98
2019-03-27T00:56:50.306Z,7.28
2019-03-27T00:57:23.945Z,7.87
2019-03-27T00:57:57.609Z,10.70
2019-03-27T00:58:31.279Z,11.50
2019-03-27T00:59:05.050Z,8.18
2019-03-27T00:59:38.793Z,5.42
2019-03-27T01:00:24.177Z,6.87
2019-03-27T01:01:13.958Z,10.08
2019-03-27T01:01:47.701Z,6.47
2019-03-27T01:02:21.418Z,7.92
2019-03-27T01:02:55.173Z,7.47
2019-03-27T01:03:28.831Z,6.03
2019-03-27T01:04:02.561Z,7.47
2019-03-27T01:04:36.292Z,8.00
2019-03-27T01:05:10.223Z,10.10
2019-03-27T01:05:44.002Z,8.63
2019-03-27T01:06:17.760Z,8.80
2019-03-27T01:06:51.497Z,7.97
2019-03-27T01:07:25.245Z,10.23
2019-03-27T01:07:58.911Z,8.40
2019-03-27T01:08:32.649Z,8.70
2019-03-27T01:09:06.315Z,7.08
2019-03-27T01:09:39.987Z,6.87
2019-03-27T01:10:13.736Z,9.10
2019-03-27T01:10:47.410Z,8.08
2019-03-27T01:11:21.106Z,6.65
2019-03-27T01:11:54.759Z,6.47
2019-03-27T01:12:28.425Z,7.12
2019-03-27T01:13:02.149Z,6.28
2019-03-27T01:13:35.817Z,9.13
2019-03-27T01:14:09.557Z,8.85
2019-03-27T01:14:43.289Z,7.67
2019-03-27T01:15:17.050Z,8.03
2019-03-27T01:15:50.771Z,9.00
2019-03-27T01:16:24.543Z,7.90
2019-03-27T01:16:58.204Z,8.13
2019-03-27T01:17:31.943Z,6.45
2019-03-27T01:18:05.584Z,10.00
2019-03-27T01:18:39.335Z,11.85
2019-03-27T01:19:13.057Z,8.25
2019-03-27T01:19:46.800Z,9.23
2019-03-27T01:20:20.524Z,8.00
2019-03-27T01:20:54.266Z,10.95
2019-03-27T01:21:28.072Z,9.35
2019-03-27T01:22:01.759Z,8.78
2019-03-27T01:22:35.724Z,10.03
2019-03-27T01:23:09.453Z,13.80
2019-03-27T01:23:43.119Z,7.90
2019-03-27T01:24:16.889Z,10.28
2019-03-27T01:24:50.620Z,8.23
2019-03-27T01:25:24.344Z,10.00
2019-03-27T01:25:58.006Z,9.00
2019-03-27T01:26:31.806Z,8.38
2019-03-27T01:27:05.480Z,9.90
2019-03-27T01:27:39.212Z,10.18
2019-03-27T01:28:12.865Z,15.90
2019-03-27T01:28:46.818Z,10.20
2019-03-27T01:29:20.479Z,9.55
2019-03-27T01:29:54.144Z,13.58
2019-03-27T01:30:27.873Z,11.70
2019-03-27T01:31:01.954Z,10.70
2019-03-27T01:31:35.621Z,11.73
2019-03-27T01:32:09.384Z,10.53
2019-03-27T01:32:43.115Z,8.48
2019-03-27T01:33:16.764Z,9.63
2019-03-27T01:33:50.413Z,9.80
2019-03-27T01:34:24.148Z,11.33
2019-03-27T01:34:57.817Z,11.97
2019-03-27T01:35:31.562Z,12.55
2019-03-27T01:36:05.322Z,8.70
2019-03-27T01:36:39.064Z,11.33
2019-03-27T01:37:12.733Z,10.88
2019-03-27T01:37:46.387Z,11.78
2019-03-27T01:38:20.048Z,10.98
2019-03-27T01:38:53.797Z,13.80
2019-03-27T01:39:27.464Z,10.48
2019-03-27T01:40:01.290Z,10.15
2019-03-27T01:40:34.960Z,10.38
2019-03-27T01:41:08.633Z,13.60
2019-03-27T01:41:42.290Z,8.88
2019-03-27T01:42:16.077Z,10.88
2019-03-27T01:42:49.820Z,11.20
2019-03-27T01:43:23.621Z,12.55
2019-03-27T01:43:57.468Z,13.80
2019-03-27T01:44:31.129Z,12.53
2019-03-27T01:45:05.464Z,12.63
2019-03-27T01:45:52.193Z,11.05
2019-03-27T01:46:14.528Z,15.75
2019-03-27T01:46:48.289Z,12.40
2019-03-27T01:47:22.885Z,12.20
2019-03-27T01:47:56.608Z,13.03
2019-03-27T01:48:30.415Z,14.05
2019-03-27T01:49:04.153Z,10.75
2019-03-27T01:49:37.949Z,16.00
2019-03-27T01:50:11.668Z,13.58
2019-03-27T01:50:45.401Z,12.80
2019-03-27T01:51:19.135Z,11.68
2019-03-27T01:51:52.784Z,14.00
2019-03-27T01:52:26.463Z,13.90
2019-03-27T01:53:00.197Z,13.80
2019-03-27T01:53:33.932Z,11.57
2019-03-27T01:54:07.597Z,15.85
2019-03-27T01:54:41.328Z,12.78
2019-03-27T01:55:15.071Z,11.80
2019-03-27T01:55:48.820Z,13.53
2019-03-27T01:56:22.556Z,11.53
2019-03-27T01:56:56.227Z,12.85
2019-03-27T01:57:29.932Z,11.53
2019-03-27T01:58:03.587Z,10.53
2019-03-27T01:58:37.313Z,15.95
2019-03-27T01:59:10.965Z,14.93
2019-03-27T01:59:44.619Z,13.58
2019-03-27T02:00:18.561Z,11.38
2019-03-27T02:00:52.200Z,10.40
2019-03-27T02:01:25.864Z,10.95
2019-03-27T02:01:59.600Z,11.45
2019-03-27T02:02:34.283Z,11.43
2019-03-27T02:03:07.986Z,11.85
2019-03-27T02:03:41.731Z,14.38
2019-03-27T02:04:15.392Z,12.98
2019-03-27T02:04:49.054Z,9.85
2019-03-27T02:05:22.707Z,13.10
2019-03-27T02:05:56.432Z,14.10
2019-03-27T02:06:30.094Z,10.98
2019-03-27T02:07:03.861Z,12.80
2019-03-27T02:07:37.620Z,14.20
2019-03-27T02:08:11.360Z,14.80
2019-03-27T02:08:45.022Z,12.95
2019-03-27T02:09:18.680Z,11.60
2019-03-27T02:09:52.346Z,14.58
2019-03-27T02:10:26.089Z,14.25
2019-03-27T02:10:59.841Z,12.93
2019-03-27T02:11:33.496Z,11.97
2019-03-27T02:12:07.157Z,17.50
2019-03-27T02:12:40.834Z,15.88
2019-03-27T02:13:14.500Z,13.58
2019-03-27T02:13:48.153Z,10.55
2019-03-27T02:14:21.885Z,12.98
2019-03-27T02:14:55.559Z,11.00
2019-03-27T02:15:29.213Z,12.47
2019-03-27T02:16:07.272Z,14.60
2019-03-27T02:16:38.393Z,11.03
2019-03-27T02:17:12.258Z,11.30
2019-03-27T02:17:45.993Z,16.20
2019-03-27T02:18:19.656Z,13.03
2019-03-27T02:18:53.303Z,13.80
2019-03-27T02:19:27.053Z,9.80
2019-03-27T02:20:00.812Z,11.12
2019-03-27T02:20:34.587Z,12.73
2019-03-27T02:21:08.310Z,10.93
2019-03-27T02:21:42.042Z,16.07
2019-03-27T02:22:15.795Z,14.10
2019-03-27T02:22:49.443Z,13.43
2019-03-27T02:23:23.340Z,12.85
2019-03-27T02:23:57.001Z,12.53
2019-03-27T02:24:30.664Z,15.43
2019-03-27T02:25:04.409Z,12.80
2019-03-27T02:25:38.104Z,12.28
2019-03-27T02:26:11.936Z,14.53
2019-03-27T02:26:45.608Z,14.58
2019-03-27T02:27:20.093Z,13.50
2019-03-27T02:27:53.838Z,15.10
2019-03-27T02:28:27.574Z,11.95
2019-03-27T02:29:01.221Z,14.85
2019-03-27T02:29:34.948Z,14.43
2019-03-27T02:30:08.677Z,15.32
2019-03-27T02:30:42.406Z,13.95
2019-03-27T02:31:16.089Z,14.43
2019-03-27T02:31:49.733Z,13.00
2019-03-27T02:32:23.385Z,13.22
2019-03-27T02:32:57.168Z,15.30
2019-03-27T02:33:30.819Z,15.48
2019-03-27T02:34:04.465Z,13.88
2019-03-27T02:34:38.194Z,14.38
2019-03-27T02:35:11.921Z,13.00
2019-03-27T02:35:45.578Z,14.63
2019-03-27T02:36:19.224Z,12.25
2019-03-27T02:36:52.882Z,14.85
2019-03-27T02:37:26.612Z,13.93
2019-03-27T02:38:00.344Z,13.58
2019-03-27T02:38:34.240Z,13.60
2019-03-27T02:39:08.247Z,15.75
2019-03-27T02:39:41.892Z,11.85
2019-03-27T02:40:15.628Z,15.43
2019-03-27T02:40:49.274Z,13.35
2019-03-27T02:41:22.921Z,15.53
2019-03-27T02:41:56.665Z,13.22
2019-03-27T02:42:30.448Z,18.75
2019-03-27T02:43:04.214Z,14.23
2019-03-27T02:43:37.977Z,16.40
2019-03-27T02:44:11.815Z,16.82
2019-03-27T02:44:45.550Z,14.43
2019-03-27T02:45:19.289Z,15.05
2019-03-27T02:45:53.027Z,18.25
2019-03-27T02:46:26.781Z,16.67
2019-03-27T02:47:00.584Z,19.20
2019-03-27T02:47:34.301Z,15.78
2019-03-27T02:48:08.068Z,16.20
2019-03-27T02:48:41.752Z,16.73
2019-03-27T02:49:15.429Z,16.75
2019-03-27T02:49:49.181Z,14.43
2019-03-27T02:50:22.863Z,22.73
2019-03-27T02:50:56.518Z,17.80
2019-03-27T02:51:30.272Z,17.42
2019-03-27T02:52:04.006Z,15.20
2019-03-27T02:52:37.732Z,14.10
2019-03-27T02:53:11.408Z,13.18
2019-03-27T02:53:45.069Z,16.93
2019-03-27T02:54:18.722Z,18.00
2019-03-27T02:54:52.382Z,17.60
2019-03-27T02:55:26.109Z,16.02
2019-03-27T02:55:59.860Z,15.98
2019-03-27T02:56:33.545Z,18.20
2019-03-27T02:57:07.194Z,21.25
2019-03-27T02:57:40.984Z,16.35
2019-03-27T02:58:15.843Z,17.32
2019-03-27T02:58:49.592Z,16.95
2019-03-27T02:59:23.328Z,17.12
2019-03-27T02:59:57.001Z,17.62
2019-03-27T03:00:30.739Z,17.32
2019-03-27T03:01:04.567Z,16.45
2019-03-27T03:01:38.288Z,18.85
2019-03-27T03:02:12.067Z,17.65
2019-03-27T03:02:45.800Z,16.37
2019-03-27T03:03:19.570Z,17.75
2019-03-27T03:03:53.324Z,16.00
2019-03-27T03:04:26.970Z,16.17
2019-03-27T03:05:00.706Z,17.98
2019-03-27T03:05:34.358Z,17.07
2019-03-27T03:06:08.023Z,17.45
2019-03-27T03:06:41.676Z,20.92
2019-03-27T03:07:15.448Z,19.87
2019-03-27T03:07:49.097Z,17.25
2019-03-27T03:08:22.790Z,17.07
2019-03-27T03:08:56.598Z,16.07
2019-03-27T03:09:30.252Z,17.57
2019-03-27T03:10:04.650Z,19.10
2019-03-27T03:10:38.392Z,18.07
2019-03-27T03:11:12.118Z,15.00
2019-03-27T03:11:45.854Z,21.23
2019-03-27T03:12:19.616Z,18.65
2019-03-27T03:12:53.428Z,16.30
2019-03-27T03:13:27.103Z,17.20
2019-03-27T03:14:00.828Z,18.60
2019-03-27T03:14:34.769Z,19.12
2019-03-27T03:15:08.837Z,18.23
2019-03-27T03:15:42.573Z,13.98
2019-03-27T03:16:16.333Z,15.88
2019-03-27T03:16:50.005Z,18.30
2019-03-27T03:17:23.747Z,19.50
2019-03-27T03:17:57.441Z,20.02
2019-03-27T03:18:31.138Z,19.25
2019-03-27T03:19:04.889Z,17.25
2019-03-27T03:19:38.620Z,20.77
2019-03-27T03:20:12.341Z,19.82
2019-03-27T03:20:46.089Z,14.20
2019-03-27T03:21:19.776Z,18.70
2019-03-27T03:21:53.577Z,19.32
2019-03-27T03:22:27.392Z,18.85
2019-03-27T03:23:01.059Z,22.70
2019-03-27T03:23:34.810Z,16.73
2019-03-27T03:24:08.461Z,19.32
2019-03-27T03:24:42.126Z,15.85
2019-03-27T03:25:16.065Z,16.35
2019-03-27T03:25:49.742Z,17.15
2019-03-27T03:26:23.529Z,18.90
2019-03-27T03:26:57.317Z,18.35
2019-03-27T03:27:30.984Z,24.12
2019-03-27T03:28:04.674Z,19.17
2019-03-27T03:28:38.413Z,19.73
2019-03-27T03:29:12.321Z,19.25
2019-03-27T03:29:45.988Z,21.17
2019-03-27T03:30:19.924Z,17.73
2019-03-27T03:30:53.672Z,21.12
2019-03-27T03:31:27.470Z,19.98
2019-03-27T03:32:01.243Z,17.98
2019-03-27T03:32:34.991Z,17.77
2019-03-27T03:33:08.823Z,19.25
2019-03-27T03:33:42.582Z,16.50
2019-03-27T03:34:16.367Z,21.82
2019-03-27T03:34:50.096Z,17.45
2019-03-27T03:35:23.846Z,17.62
2019-03-27T03:36:16.621Z,23.98
2019-03-27T03:36:50.368Z,17.52
2019-03-27T03:37:24.022Z,16.77
2019-03-27T03:37:57.782Z,20.35
2019-03-27T03:38:31.525Z,13.30
2019-03-27T03:39:06.215Z,21.55
2019-03-27T03:39:39.910Z,16.97
2019-03-27T03:40:14.549Z,21.23
2019-03-27T03:40:48.274Z,16.40
2019-03-27T03:41:22.248Z,22.50
2019-03-27T03:41:55.988Z,21.95
2019-03-27T03:42:29.657Z,16.57
2019-03-27T03:43:03.634Z,18.00
2019-03-27T03:43:37.446Z,15.93
2019-03-27T03:44:11.204Z,19.07
2019-03-27T03:44:44.866Z,16.35
2019-03-27T03:45:18.873Z,20.17
2019-03-27T03:45:52.649Z,18.87
2019-03-27T03:46:27.073Z,17.25
2019-03-27T03:47:00.950Z,19.15
2019-03-27T03:47:34.769Z,22.25
2019-03-27T03:48:08.430Z,18.40
2019-03-27T03:48:42.089Z,16.77
2019-03-27T03:49:15.882Z,16.65
2019-03-27T03:49:49.613Z,17.17
2019-03-27T03:50:36.108Z,16.57
2019-03-27T03:51:10.336Z,18.92
2019-03-27T03:51:44.045Z,15.93
2019-03-27T03:52:18.535Z,16.93
2019-03-27T03:52:52.253Z,16.45
2019-03-27T03:53:26.169Z,15.50
2019-03-27T03:54:01.001Z,19.82
2019-03-27T03:54:35.015Z,17.55
2019-03-27T03:55:08.785Z,18.50
2019-03-27T03:55:42.935Z,15.90
2019-03-27T03:56:17.101Z,17.75
2019-03-27T03:56:52.323Z,17.35
2019-03-27T03:57:27.162Z,16.67
2019-03-27T03:58:01.490Z,16.50
2019-03-27T03:58:36.734Z,19.45
2019-03-27T03:59:11.543Z,13.80
2019-03-27T03:59:45.617Z,19.82
2019-03-27T04:00:19.363Z,16.12
2019-03-27T04:00:53.098Z,20.12
2019-03-27T04:01:28.588Z,17.37
2019-03-27T04:02:03.508Z,16.12
2019-03-27T04:02:37.283Z,16.15
2019-03-27T04:03:11.805Z,16.42
2019-03-27T04:03:46.918Z,18.12
2019-03-27T04:04:21.466Z,17.73
2019-03-27T04:04:56.309Z,15.15
2019-03-27T04:05:29.987Z,17.10
2019-03-27T04:06:03.956Z,13.95
2019-03-27T04:06:37.744Z,17.23
2019-03-27T04:07:11.489Z,15.88
2019-03-27T04:07:45.159Z,15.95
2019-03-27T04:08:18.888Z,16.30
2019-03-27T04:08:52.552Z,16.32
2019-03-27T04:09:26.420Z,15.43
2019-03-27T04:10:00.553Z,14.75
2019-03-27T04:10:34.822Z,14.28
2019-03-27T04:11:08.483Z,13.98
2019-03-27T04:11:42.158Z,16.60
2019-03-27T04:12:15.898Z,17.45
2019-03-27T04:12:49.575Z,17.02
2019-03-27T04:13:23.218Z,15.08
2019-03-27T04:13:56.875Z,16.87
2019-03-27T04:14:30.621Z,15.53
2019-03-27T04:15:04.727Z,16.05
2019-03-27T04:15:38.458Z,13.70
2019-03-27T04:16:12.236Z,16.32
2019-03-27T04:16:45.887Z,14.73
2019-03-27T04:17:19.617Z,15.03
2019-03-27T04:17:53.269Z,17.35
2019-03-27T04:18:26.926Z,16.50
2019-03-27T04:19:00.672Z,14.13
2019-03-27T04:19:35.145Z,15.20
2019-03-27T04:20:09.059Z,17.95
2019-03-27T04:20:42.870Z,16.65
2019-03-27T04:21:16.605Z,17.60
2019-03-27T04:21:50.314Z,15.80
2019-03-27T04:22:24.114Z,13.15
2019-03-27T04:22:57.901Z,17.48
2019-03-27T04:23:31.750Z,16.00
2019-03-27T04:24:05.479Z,17.50
2019-03-27T04:24:40.001Z,17.27
2019-03-27T04:25:14.418Z,17.00
2019-03-27T04:26:08.131Z,14.07
2019-03-27T04:26:23.797Z,15.15
2019-03-27T04:26:57.537Z,22.13
2019-03-27T04:27:31.194Z,19.77
2019-03-27T04:28:04.973Z,13.65
2019-03-27T04:28:38.690Z,11.90
2019-03-27T04:29:12.345Z,17.00
2019-03-27T04:29:46.040Z,15.90
2019-03-27T04:30:19.778Z,14.80
2019-03-27T04:30:53.430Z,13.08
2019-03-27T04:31:27.241Z,20.08
2019-03-27T04:32:00.910Z,14.30
2019-03-27T04:32:34.561Z,15.48
2019-03-27T04:33:08.296Z,17.12
2019-03-27T04:33:41.982Z,14.80
2019-03-27T04:34:15.646Z,15.25
2019-03-27T04:34:49.397Z,20.32
2019-03-27T04:35:23.066Z,18.27
2019-03-27T04:35:56.803Z,15.25
2019-03-27T04:36:30.450Z,22.20
2019-03-27T04:37:04.192Z,18.02
2019-03-27T04:37:37.943Z,19.60
2019-03-27T04:38:11.701Z,13.25
2019-03-27T04:38:45.448Z,20.00
2019-03-27T04:39:19.107Z,14.55
2019-03-27T04:39:52.793Z,18.12
2019-03-27T04:40:26.453Z,19.02
2019-03-27T04:41:00.113Z,16.27
2019-03-27T04:41:33.777Z,18.48
2019-03-27T04:42:07.430Z,18.02
2019-03-27T04:42:41.087Z,15.95
2019-03-27T04:43:14.905Z,19.05
2019-03-27T04:43:48.648Z,18.17
2019-03-27T04:44:22.326Z,21.45
2019-03-27T04:44:56.079Z,21.85
2019-03-27T04:45:29.817Z,16.20
2019-03-27T04:46:03.544Z,19.87
2019-03-27T04:46:37.325Z,20.10
2019-03-27T04:47:10.984Z,17.12
2019-03-27T04:47:44.657Z,16.90
2019-03-27T04:48:18.321Z,20.05
2019-03-27T04:48:51.961Z,19.73
2019-03-27T04:49:25.700Z,21.93
2019-03-27T04:49:59.387Z,19.50
2019-03-27T04:50:33.131Z,22.42
2019-03-27T04:51:06.812Z,22.40
2019-03-27T04:51:40.479Z,21.35
2019-03-27T04:52:14.141Z,22.67
2019-03-27T04:52:47.895Z,19.32
2019-03-27T04:53:21.660Z,24.70
2019-03-27T04:53:55.335Z,21.57
2019-03-27T04:54:28.998Z,20.95
2019-03-27T04:55:02.777Z,16.45
2019-03-27T04:55:36.451Z,24.60
2019-03-27T04:56:10.203Z,21.07
2019-03-27T04:56:43.875Z,17.70
2019-03-27T04:57:17.613Z,23.42
2019-03-27T04:57:51.359Z,23.87
2019-03-27T04:58:25.234Z,17.75
2019-03-27T04:58:58.896Z,20.85
2019-03-27T04:59:32.553Z,21.00
2019-03-27T05:00:06.691Z,22.93
2019-03-27T05:00:40.362Z,24.40
2019-03-27T05:01:14.022Z,18.07
2019-03-27T05:01:47.780Z,21.27
2019-03-27T05:02:21.528Z,21.23
2019-03-27T05:02:55.295Z,23.65
2019-03-27T05:03:29.157Z,22.85
2019-03-27T05:04:03.462Z,21.33
2019-03-27T05:04:37.422Z,23.98
2019-03-27T05:05:11.507Z,19.67
2019-03-27T05:05:45.238Z,22.80
2019-03-27T05:06:18.885Z,23.85
2019-03-27T05:06:52.562Z,23.40
2019-03-27T05:07:26.262Z,19.50
2019-03-27T05:07:59.997Z,25.15
2019-03-27T05:08:33.642Z,20.60
2019-03-27T05:09:07.373Z,24.55
2019-03-27T05:09:41.034Z,25.77
2019-03-27T05:10:14.901Z,22.05
2019-03-27T05:10:48.607Z,27.40
2019-03-27T05:11:22.278Z,18.27
2019-03-27T05:11:56.005Z,23.05
2019-03-27T05:12:29.835Z,26.50
2019-03-27T05:13:03.589Z,23.20
2019-03-27T05:13:37.320Z,30.77
2019-03-27T05:14:11.010Z,22.10
2019-03-27T05:14:44.672Z,20.27
2019-03-27T05:15:18.437Z,21.25
2019-03-27T05:15:52.091Z,22.48
2019-03-27T05:16:25.766Z,22.60
2019-03-27T05:16:59.516Z,29.70
2019-03-27T05:17:45.198Z,26.33
2019-03-27T05:18:08.740Z,22.27
2019-03-27T05:18:42.487Z,22.85
2019-03-27T05:19:16.144Z,19.35
2019-03-27T05:19:49.885Z,26.35
2019-03-27T05:20:23.658Z,19.65
2019-03-27T05:20:57.326Z,25.27
2019-03-27T05:21:31.072Z,23.70
2019-03-27T05:22:04.729Z,19.35
2019-03-27T05:22:38.477Z,22.85
2019-03-27T05:23:12.201Z,27.50
2019-03-27T05:23:45.853Z,27.50
2019-03-27T05:24:19.532Z,20.15
2019-03-27T05:24:53.271Z,24.87
2019-03-27T05:25:27.059Z,20.05
2019-03-27T05:26:00.857Z,24.18
2019-03-27T05:26:34.604Z,20.32
2019-03-27T05:27:08.355Z,22.75
2019-03-27T05:27:42.022Z,25.23
2019-03-27T05:28:15.733Z,24.00
2019-03-27T05:28:49.435Z,20.25
2019-03-27T05:29:23.079Z,25.57
2019-03-27T05:29:56.734Z,20.57
2019-03-27T05:30:30.485Z,29.75
2019-03-27T05:31:04.221Z,21.27
2019-03-27T05:31:37.997Z,24.32
2019-03-27T05:32:11.685Z,23.62
2019-03-27T05:32:45.537Z,20.82
2019-03-27T05:33:19.295Z,22.22
2019-03-27T05:33:52.974Z,26.00
2019-03-27T05:34:26.643Z,20.25
2019-03-27T05:35:00.482Z,28.75
2019-03-27T05:35:34.249Z,21.23
2019-03-27T05:36:08.734Z,25.57
2019-03-27T05:36:42.429Z,22.62
2019-03-27T05:37:16.218Z,19.45
2019-03-27T05:37:49.893Z,21.50
2019-03-27T05:38:23.762Z,20.40
2019-03-27T05:38:57.690Z,21.95
2019-03-27T05:39:31.356Z,21.73
2019-03-27T05:40:05.829Z,24.55
2019-03-27T05:40:39.515Z,25.90
2019-03-27T05:41:13.281Z,27.62
2019-03-27T05:41:46.977Z,27.80
2019-03-27T05:42:20.645Z,23.32
2019-03-27T05:43:00.537Z,27.00
2019-03-27T05:43:30.093Z,24.30
2019-03-27T05:44:04.047Z,26.25
2019-03-27T05:44:37.697Z,29.55
2019-03-27T05:45:11.432Z,24.35
2019-03-27T05:45:45.917Z,29.37
2019-03-27T05:46:19.584Z,24.67
2019-03-27T05:46:53.289Z,25.72
2019-03-27T05:47:27.055Z,36.58
2019-03-27T05:48:00.851Z,29.90
2019-03-27T05:48:34.591Z,29.23
2019-03-27T05:49:08.285Z,22.07
2019-03-27T05:49:41.949Z,29.77
2019-03-27T05:50:15.692Z,27.55
2019-03-27T05:50:49.512Z,23.90
2019-03-27T05:51:23.252Z,27.10
2019-03-27T05:51:56.925Z,27.62
2019-03-27T05:52:30.580Z,29.12
2019-03-27T05:53:04.361Z,24.45
2019-03-27T05:53:38.036Z,24.72
2019-03-27T05:54:11.805Z,28.75
2019-03-27T05:54:45.470Z,29.98
2019-03-27T05:55:19.206Z,25.90
2019-03-27T05:55:52.868Z,24.52
2019-03-27T05:56:26.893Z,22.90
2019-03-27T05:57:00.654Z,26.37
2019-03-27T05:57:34.373Z,23.30
2019-03-27T05:58:08.045Z,20.32
2019-03-27T05:58:41.733Z,23.35
2019-03-27T05:59:15.445Z,26.48
2019-03-27T05:59:49.104Z,24.25
2019-03-27T06:00:22.909Z,37.13
2019-03-27T06:00:56.959Z,19.95
2019-03-27T06:01:30.717Z,25.35
2019-03-27T06:02:04.461Z,33.20
2019-03-27T06:02:38.209Z,27.17
2019-03-27T06:03:11.906Z,25.70
2019-03-27T06:03:45.569Z,24.55
2019-03-27T06:04:19.337Z,24.75
2019-03-27T06:04:53.089Z,18.10
2019-03-27T06:05:27.023Z,27.93
2019-03-27T06:06:01.509Z,27.20
2019-03-27T06:06:35.193Z,22.95
2019-03-27T06:07:08.947Z,23.95
2019-03-27T06:07:42.656Z,26.30
2019-03-27T06:08:16.396Z,23.85
2019-03-27T06:08:50.151Z,16.80
2019-03-27T06:09:23.912Z,27.27
2019-03-27T06:09:57.571Z,19.87
2019-03-27T06:10:31.273Z,22.85
2019-03-27T06:11:05.026Z,21.12
2019-03-27T06:11:38.945Z,22.93
2019-03-27T06:12:12.688Z,23.18
2019-03-27T06:12:46.359Z,23.40
2019-03-27T06:13:20.014Z,17.17
2019-03-27T06:13:53.672Z,21.45
2019-03-27T06:14:27.437Z,25.37
2019-03-27T06:15:01.253Z,25.43
2019-03-27T06:15:35.065Z,26.52
2019-03-27T06:16:08.833Z,24.52
2019-03-27T06:16:42.585Z,25.12
2019-03-27T06:17:16.253Z,17.57
2019-03-27T06:17:49.976Z,25.52
2019-03-27T06:18:23.840Z,24.18
2019-03-27T06:18:57.577Z,23.90
2019-03-27T06:19:31.236Z,19.37
2019-03-27T06:20:05.288Z,18.02
2019-03-27T06:20:38.945Z,30.05
2019-03-27T06:21:12.596Z,20.85
2019-03-27T06:21:46.278Z,24.85
2019-03-27T06:22:19.917Z,17.98
2019-03-27T06:22:53.669Z,25.43
2019-03-27T06:23:27.332Z,20.75
2019-03-27T06:24:01.001Z,15.48
2019-03-27T06:24:34.668Z,21.97
2019-03-27T06:25:08.585Z,18.77
2019-03-27T06:25:42.557Z,25.85
2019-03-27T06:26:16.461Z,23.02
2019-03-27T06:26:50.458Z,22.60
2019-03-27T06:27:24.457Z,14.83
2019-03-27T06:27:58.544Z,21.17
2019-03-27T06:28:32.511Z,25.95
2019-03-27T06:29:06.387Z,19.35
2019-03-27T06:29:40.357Z,26.75
2019-03-27T06:30:14.149Z,16.75
2019-03-27T06:30:48.185Z,24.98
2019-03-27T06:31:22.009Z,20.32
2019-03-27T06:31:56.483Z,18.62
2019-03-27T06:32:30.391Z,16.35
2019-03-27T06:33:04.254Z,18.15
2019-03-27T06:33:38.000Z,23.90
2019-03-27T06:34:11.936Z,20.10
2019-03-27T06:34:46.145Z,18.25
2019-03-27T06:35:20.373Z,19.87
2019-03-27T06:35:54.412Z,21.85
2019-03-27T06:36:28.208Z,24.87
2019-03-27T06:37:03.114Z,15.48
2019-03-27T06:37:37.114Z,26.27
2019-03-27T06:38:11.059Z,18.05
2019-03-27T06:38:45.041Z,15.48
2019-03-27T06:39:19.034Z,16.40
2019-03-27T06:39:53.101Z,18.15
2019-03-27T06:40:26.984Z,22.93
2019-03-27T06:41:01.195Z,24.92
2019-03-27T06:41:35.547Z,17.48
2019-03-27T06:42:09.482Z,20.68
2019-03-27T06:42:43.499Z,19.12
2019-03-27T06:43:17.376Z,20.97
2019-03-27T06:43:51.273Z,16.52
2019-03-27T06:44:25.583Z,19.00
2019-03-27T06:44:59.389Z,18.27
2019-03-27T06:45:33.300Z,13.32
2019-03-27T06:46:07.175Z,11.78
2019-03-27T06:46:41.060Z,15.30
2019-03-27T06:47:15.130Z,16.70
2019-03-27T06:47:49.532Z,15.60
2019-03-27T06:48:26.457Z,17.17
2019-03-27T06:48:59.200Z,18.35
2019-03-27T06:49:33.267Z,21.52
2019-03-27T06:50:07.375Z,20.10
2019-03-27T06:50:41.365Z,18.12
2019-03-27T06:51:15.126Z,20.85
2019-03-27T06:51:49.218Z,17.57
2019-03-27T06:52:23.184Z,21.23
2019-03-27T06:52:57.088Z,15.68
2019-03-27T06:53:31.249Z,21.97
2019-03-27T06:54:05.183Z,17.85
2019-03-27T06:54:39.073Z,16.97
2019-03-27T06:55:13.218Z,16.35
2019-03-27T06:55:47.179Z,14.68
2019-03-27T06:56:21.249Z,16.40
2019-03-27T06:56:55.070Z,12.28
2019-03-27T06:57:28.833Z,19.75
2019-03-27T06:58:02.546Z,14.25
2019-03-27T06:58:36.201Z,12.03
2019-03-27T06:59:09.864Z,15.00
2019-03-27T06:59:43.701Z,18.15
2019-03-27T07:00:17.636Z,21.25
2019-03-27T07:00:51.385Z,15.78
2019-03-27T07:01:25.115Z,15.75
2019-03-27T07:01:58.893Z,16.80
2019-03-27T07:02:32.617Z,14.90
2019-03-27T07:03:06.764Z,19.32
2019-03-27T07:03:40.541Z,19.98
2019-03-27T07:04:14.225Z,13.18
2019-03-27T07:04:48.057Z,16.57
2019-03-27T07:05:21.719Z,17.00
2019-03-27T07:05:55.373Z,16.23
2019-03-27T07:06:29.057Z,20.45
2019-03-27T07:07:03.001Z,17.27
2019-03-27T07:07:36.753Z,24.65
2019-03-27T07:08:10.409Z,17.12
2019-03-27T07:08:44.172Z,13.38
2019-03-27T07:09:17.937Z,22.67
2019-03-27T07:09:51.601Z,15.75
2019-03-27T07:10:25.329Z,15.32
2019-03-27T07:10:59.015Z,13.72
2019-03-27T07:11:32.691Z,18.37
2019-03-27T07:12:20.182Z,14.10
2019-03-27T07:12:41.909Z,16.35
2019-03-27T07:13:15.756Z,16.70
2019-03-27T07:13:49.495Z,21.95
2019-03-27T07:14:23.157Z,13.90
2019-03-27T07:14:56.916Z,25.77
2019-03-27T07:15:30.683Z,15.88
2019-03-27T07:16:04.480Z,16.30
2019-03-27T07:16:38.278Z,14.05
2019-03-27T07:17:12.145Z,18.62
2019-03-27T07:17:45.895Z,24.12
2019-03-27T07:18:19.644Z,20.02
2019-03-27T07:18:53.309Z,15.93
2019-03-27T07:19:26.972Z,17.45